Time;durP1;ratioP1;P1;durP2;ratioP2;P2;SDS_P1;SDS_P2;PMS_P1;PMS_P2;Temp;Humidity;BMP_temperature;BMP_pressure;BME280_temperature;BME280_humidity;BME280_pressure;Samples;Min_cycle;Max_cycle;Signal;HPM_P1;HPM_P2
2023/01/27 00:01:18;;;;;;;14.93;8.93;;;;;;;2.51;100.00;98651.44;4896573;29;20206;-79
2023/01/27 00:04:12;;;;;;;14.30;10.00;;;;;;;2.41;100.00;98647.28;4897992;29;20221;-78
2023/01/27 00:07:12;;;;;;;13.87;9.97;;;;;;;2.39;100.00;98658.38;4898377;29;20234;-79
2023/01/27 00:19:15;;;;;;;17.40;11.53;;;;;;;2.45;100.00;98683.94;4894668;29;20207;-79
2023/01/27 00:28:05;;;;;;;17.17;10.93;;;;;;;2.35;100.00;98636.25;4896977;29;20293;-77
2023/01/27 00:34:11;;;;;;;18.63;11.90;;;;;;;2.69;100.00;98629.91;4857226;29;20223;-78
2023/01/27 00:40:23;;;;;;;15.60;11.10;;;;;;;2.69;100.00;98636.75;4896154;29;20206;-80
2023/01/27 00:43:10;;;;;;;18.17;11.67;;;;;;;2.42;100.00;98604.59;4897031;29;20237;-79
2023/01/27 00:46:04;;;;;;;17.33;11.13;;;;;;;2.60;100.00;98642.78;4897184;29;20293;-77
2023/01/27 00:51:46;;;;;;;15.33;11.50;;;;;;;2.50;100.00;98630.94;4896073;29;20202;-78
2023/01/27 00:54:47;;;;;;;18.60;11.20;;;;;;;2.51;100.00;98643.75;4897136;29;20206;-78
2023/01/27 01:01:05;;;;;;;19.50;11.77;;;;;;;2.53;100.00;98615.56;4888671;29;20214;-79
2023/01/27 01:04:02;;;;;;;20.73;11.30;;;;;;;2.41;100.00;98590.09;4896554;29;20209;-79
2023/01/27 01:07:16;;;;;;;18.20;12.40;;;;;;;2.46;100.00;98576.38;4895876;29;20209;-80
2023/01/27 01:10:18;;;;;;;17.73;11.30;;;;;;;2.42;100.00;98564.47;4896247;29;20216;-79
2023/01/27 01:13:32;;;;;;;;;;;;;;;;;;;;;
2023/01/27 01:16:26;;;;;;;15.10;10.47;;;;;;;2.54;100.00;98561.75;4894214;29;20241;-77
2023/01/27 01:19:14;;;;;;;14.27;9.77;;;;;;;2.49;100.00;98554.97;4895972;29;20206;-77
2023/01/27 01:22:06;;;;;;;12.00;9.53;;;;;;;2.48;100.00;98591.72;4895967;29;20202;-77
2023/01/27 01:25:13;;;;;;;11.63;8.83;;;;;;;2.62;100.00;98625.69;4895915;29;20233;-77
2023/01/27 01:28:09;;;;;;;10.03;8.43;;;;;;;2.57;100.00;98590.78;4895684;29;20694;-79
2023/01/27 01:31:06;;;;;;;10.97;8.47;;;;;;;2.73;100.00;98620.44;4892849;29;20309;-78
2023/01/27 01:37:00;;;;;;;10.37;8.53;;;;;;;2.88;100.00;98618.56;4895679;29;20233;-78
2023/01/27 01:39:57;;;;;;;10.20;8.97;;;;;;;2.84;100.00;98611.75;4895885;29;20212;-78
2023/01/27 01:42:57;;;;;;;11.97;8.97;;;;;;;2.77;100.00;98589.66;4895831;29;20209;-77
2023/01/27 01:46:15;;;;;;;13.40;8.90;;;;;;;2.89;100.00;98597.19;4890068;29;20202;-78
2023/01/27 01:49:09;;;;;;;12.77;9.10;;;;;;;2.90;100.00;98598.91;4896009;29;20206;-78
2023/01/27 01:52:04;;;;;;;11.50;8.47;;;;;;;2.81;100.00;98593.03;4896283;29;20206;-77
2023/01/27 01:55:10;;;;;;;12.00;8.93;;;;;;;2.79;100.00;98566.59;4896228;29;20701;-77
2023/01/27 01:57:56;;;;;;;11.53;7.80;;;;;;;2.95;100.00;98570.63;4895365;29;20269;-78
2023/01/27 02:01:19;;;;;;;10.97;8.03;;;;;;;3.02;100.00;98568.84;4895427;29;20700;-77
2023/01/27 02:04:25;;;;;;;11.70;8.07;;;;;;;3.16;100.00;98561.81;4895281;29;20213;-76
2023/01/27 02:07:25;;;;;;;9.63;8.00;;;;;;;3.12;100.00;98567.84;4895834;29;20198;-76
2023/01/27 02:10:17;;;;;;;10.90;7.80;;;;;;;3.07;100.00;98570.47;4895419;29;20205;-79
2023/01/27 02:13:09;;;;;;;10.13;8.07;;;;;;;3.07;100.00;98557.63;4895309;29;20647;-78
2023/01/27 02:18:38;;;;;;;11.67;8.40;;;;;;;3.14;100.00;98554.13;4894790;29;20718;-78
2023/01/27 02:27:35;;;;;;;10.67;8.33;;;;;;;3.24;100.00;98518.94;4893954;29;20597;-77
2023/01/27 02:30:25;;;;;;;11.60;8.80;;;;;;;3.24;100.00;98513.81;4895698;29;20295;-77
2023/01/27 02:33:19;;;;;;;13.07;8.40;;;;;;;3.15;100.00;98504.56;4895796;29;20202;-77
2023/01/27 02:39:21;;;;;;;10.43;8.50;;;;;;;2.99;100.00;98494.53;4893680;29;20234;-76
2023/01/27 02:42:20;;;;;;;10.83;8.23;;;;;;;3.26;100.00;98527.47;4882680;29;20222;-77
2023/01/27 02:48:02;;;;;;;15.63;10.93;;;;;;;3.24;100.00;98518.94;4895362;29;20210;-77
2023/01/27 02:54:08;;;;;;;14.10;10.10;;;;;;;3.04;100.00;98510.72;4893906;29;20759;-78
2023/01/27 02:57:10;;;;;;;13.00;10.10;;;;;;;3.03;100.00;98511.59;4894873;29;20238;-77
2023/01/27 03:00:11;;;;;;;14.37;10.67;;;;;;;2.89;100.00;98512.63;4895109;29;20223;-77
2023/01/27 03:03:08;;;;;;;16.03;10.83;;;;;;;2.85;100.00;98499.88;4892504;29;20206;-78
2023/01/27 03:06:04;;;;;;;13.97;11.13;;;;;;;2.97;100.00;98506.53;4898729;29;20194;-77
2023/01/27 03:18:29;;;;;;;13.83;10.53;;;;;;;2.74;100.00;98471.84;4898155;29;20281;-78
2023/01/27 03:21:25;;;;;;;14.27;10.37;;;;;;;2.90;100.00;98485.28;4898537;29;20202;-78
2023/01/27 03:24:08;;;;;;;11.87;9.07;;;;;;;2.63;100.00;98453.22;4898142;29;20224;-78
2023/01/27 03:48:34;;;;;;;;;;;;;;;;;;;;;
2023/01/27 03:57:13;;;;;;;9.43;7.33;;;;;;;3.29;100.00;98504.31;4892224;29;20234;-78
2023/01/27 03:59:57;;;;;;;7.43;6.67;;;;;;;3.07;100.00;98508.94;4897366;29;20206;-78
2023/01/27 04:08:49;;;;;;;8.37;7.33;;;;;;;3.37;100.00;98487.13;4897692;29;20338;-77
2023/01/27 04:14:08;;;;;;;7.67;6.93;;;;;;;3.25;100.00;98459.97;4897651;29;20208;-79
2023/01/27 04:16:50;;;;;;;8.97;6.60;;;;;;;3.33;100.00;98447.00;4879030;29;20207;-80
2023/01/27 04:19:24;;;;;;;9.13;7.20;;;;;;;3.62;100.00;98483.25;4877650;29;20578;-77
2023/01/27 04:21:57;;;;;;;7.03;6.43;;;;;;;3.36;100.00;98482.84;4878534;29;20205;-77
2023/01/27 04:24:28;;;;;;;7.10;6.40;;;;;;;3.48;100.00;98484.38;4878400;29;20213;-77
2023/01/27 04:27:14;;;;;;;10.13;6.50;;;;;;;3.49;100.00;98468.13;4877087;29;20205;-78
2023/01/27 04:29:42;;;;;;;7.47;6.30;;;;;;;3.62;100.00;98480.66;4878450;29;20199;-77
2023/01/27 04:32:19;;;;;;;8.50;6.30;;;;;;;3.62;100.00;98480.66;4878221;29;20255;-77
2023/01/27 04:34:55;;;;;;;7.47;6.53;;;;;;;3.64;100.00;98472.94;4877900;29;20198;-77
2023/01/27 04:37:35;;;;;;;7.00;6.40;;;;;;;3.59;100.00;98454.25;4876425;29;20226;-78
2023/01/27 04:40:17;;;;;;;7.27;6.50;;;;;;;3.57;100.00;98444.00;4866977;29;20213;-78
2023/01/27 04:43:03;;;;;;;7.60;6.90;;;;;;;3.62;100.00;98451.59;4875461;29;20210;-76
2023/01/27 04:45:36;;;;;;;8.00;7.30;;;;;;;3.59;100.00;98467.06;4875095;29;20210;-77
2023/01/27 04:48:08;;;;;;;8.40;6.90;;;;;;;3.48;100.00;98464.69;4874616;29;20247;-76
2023/01/27 04:50:58;;;;;;;7.90;7.20;;;;;;;3.49;100.00;98479.22;4876449;29;20203;-78
2023/01/27 04:54:21;;;;;;;9.57;7.37;;;;;;;3.37;100.00;98461.47;4878357;29;20202;-76
2023/01/27 04:57:19;;;;;;;8.07;7.27;;;;;;;3.54;100.00;98467.16;4878022;29;20231;-75
2023/01/27 05:00:11;;;;;;;10.03;7.00;;;;;;;3.49;100.00;98466.41;4877552;29;20202;-78
2023/01/27 05:03:15;;;;;;;;;;;;;;;;;;;;;
2023/01/27 05:15:33;;;;;;;10.10;8.23;;;;;;;3.43;100.00;98481.88;4885250;29;20234;-77
2023/01/27 05:18:32;;;;;;;10.67;8.97;;;;;;;3.49;100.00;98489.47;4896262;29;20226;-76
2023/01/27 05:24:07;;;;;;;13.30;9.67;;;;;;;3.62;100.00;98510.63;4892138;29;20668;-81
2023/01/27 05:26:46;;;;;;;14.10;9.73;;;;;;;3.51;100.00;98481.72;4896631;29;20198;-76
2023/01/27 05:30:00;;;;;;;13.50;8.87;;;;;;;3.58;100.00;98517.53;4895609;29;20649;-76
2023/01/27 05:33:15;;;;;;;;;;;;;;;;;;;;;
2023/01/27 05:38:55;;;;;;;14.67;10.87;;;;;;;3.40;100.00;98499.88;4894911;29;20285;-77
2023/01/27 05:42:05;;;;;;;14.53;10.63;;;;;;;3.28;100.00;98505.19;4895778;29;20237;-76
2023/01/27 05:44:53;;;;;;;14.50;10.33;;;;;;;3.31;100.00;98488.91;4895150;29;20201;-76
2023/01/27 05:51:09;;;;;;;11.87;9.63;;;;;;;3.54;100.00;98508.19;4891615;29;20217;-77
2023/01/27 05:57:17;;;;;;;14.30;9.97;;;;;;;3.74;100.00;98507.00;4893943;29;20273;-78
2023/01/27 06:00:10;;;;;;;15.30;10.00;;;;;;;3.60;100.00;98472.19;4895550;29;20687;-78
2023/01/27 06:02:59;;;;;;;15.10;9.87;;;;;;;3.58;100.00;98486.75;4895590;29;20679;-77
2023/01/27 06:06:15;;;;;;;11.87;9.67;;;;;;;3.63;100.00;98492.63;4890355;29;20304;-75
2023/01/27 06:09:14;;;;;;;12.00;9.33;;;;;;;3.59;100.00;98496.16;4876937;29;20276;-85
2023/01/27 06:21:07;;;;;;;15.20;10.47;;;;;;;3.50;100.00;98459.53;4874597;29;20270;-79
2023/01/27 06:23:56;;;;;;;14.23;10.23;;;;;;;3.56;100.00;98485.94;4876888;29;20285;-77
2023/01/27 06:27:17;;;;;;;;;;;;;;;;;;;;;
2023/01/27 06:33:11;;;;;;;13.80;10.70;;;;;;;3.75;100.00;98511.25;4875553;29;20719;-79
2023/01/27 06:35:58;;;;;;;14.33;10.67;;;;;;;3.58;100.00;98493.59;4877137;29;20361;-80
2023/01/27 06:38:54;;;;;;;14.83;10.93;;;;;;;3.48;100.00;98492.91;4880341;29;20291;-80
2023/01/27 06:41:30;;;;;;;14.27;11.17;;;;;;;3.49;100.00;98474.09;4880724;29;20213;-79
2023/01/27 06:45:08;;;;;;;13.97;9.77;;;;;;;2.84;100.00;98352.13;4881269;29;20202;-80
2023/01/27 06:48:36;;;;;;;12.60;10.07;;;;;;;3.60;100.00;98466.19;4880484;29;20203;-80
2023/01/27 06:51:28;;;;;;;14.53;10.73;;;;;;;4.01;100.00;98501.38;4878552;29;20259;-80
2023/01/27 06:54:18;;;;;;;14.30;10.40;;;;;;;4.14;100.00;98492.56;4880268;29;20199;-80
2023/01/27 06:56:49;;;;;;;15.00;10.00;;;;;;;4.21;100.00;98483.00;4882892;29;21786;-78
2023/01/27 06:59:23;;;;;;;14.77;10.43;;;;;;;4.36;100.00;98498.97;4898081;29;20226;-77
2023/01/27 07:01:53;;;;;;;28.40;19.97;;;;;;;4.46;100.00;98496.22;4908973;29;20677;-76
2023/01/27 07:04:33;;;;;;;21.80;16.63;;;;;;;4.44;100.00;98482.53;4909234;29;20312;-78
2023/01/27 07:07:05;;;;;;;19.17;13.97;;;;;;;4.49;100.00;98478.16;4906629;29;20378;-77
2023/01/27 07:10:06;;;;;;;17.50;12.93;;;;;;;4.62;100.00;98516.44;4906847;29;20336;-77
2023/01/27 07:13:26;;;;;;;15.70;11.57;;;;;;;4.05;100.00;98417.44;4907343;29;20230;-78
2023/01/27 07:16:19;;;;;;;16.13;11.37;;;;;;;4.47;100.00;98482.47;4896467;29;20256;-86
2023/01/27 07:18:51;;;;;;;17.27;11.77;;;;;;;4.33;100.00;98459.66;4900137;29;20241;-86
2023/01/27 07:32:27;;;;;;;18.70;11.33;;;;;;;4.88;100.00;98522.72;4899992;29;20291;-83
2023/01/27 07:39:09;;;;;;;16.07;10.93;;;;;;;4.71;100.00;98520.53;4898822;29;20237;-83
2023/01/27 07:42:26;;;;;;;13.90;11.07;;;;;;;3.76;100.00;98356.41;4901072;29;20205;-83
2023/01/27 07:49:05;;;;;;;14.70;10.23;;;;;;;4.77;100.00;98517.81;4896268;29;20228;-78
2023/01/27 07:52:15;;;;;;;15.37;10.93;;;;;;;4.70;100.00;98495.69;4898127;29;20659;-79
2023/01/27 07:58:08;;;;;;;16.43;11.60;;;;;;;4.86;100.00;98491.88;4893441;29;20230;-77
2023/01/27 08:01:22;;;;;;;14.90;11.67;;;;;;;4.90;100.00;98508.94;4898958;29;20298;-82
2023/01/27 08:07:26;;;;;;;16.67;11.37;;;;;;;5.04;100.00;98500.94;4898928;29;20258;-81
2023/01/27 08:10:18;;;;;;;15.70;11.10;;;;;;;4.92;100.00;98488.34;4898034;29;20191;-81
2023/01/27 08:13:11;;;;;;;15.50;11.20;;;;;;;5.04;100.00;98506.91;4898347;29;20202;-82
2023/01/27 08:16:07;;;;;;;14.70;10.70;;;;;;;4.93;100.00;98488.31;4898430;29;20276;-82
2023/01/27 08:19:09;;;;;;;18.13;11.60;;;;;;;5.07;100.00;98499.16;4899147;29;20226;-82
2023/01/27 08:22:09;;;;;;;16.27;12.33;;;;;;;4.78;100.00;98462.09;4897283;29;20209;-80
2023/01/27 08:28:36;;;;;;;15.93;12.20;;;;;;;4.67;100.00;98446.91;4879716;29;20225;-79
2023/01/27 08:31:52;;;;;;;18.00;12.77;;;;;;;4.84;100.00;98455.13;4878255;29;20242;-81
2023/01/27 08:37:53;;;;;;;18.47;12.73;;;;;;;5.04;100.00;98459.78;4867791;29;20206;-82
2023/01/27 08:40:47;;;;;;;15.63;11.63;;;;;;;5.10;100.00;98455.34;4878748;29;20622;-87
2023/01/27 08:43:55;;;;;;;13.97;12.47;;;;;;;5.12;100.00;98445.00;4881859;29;20480;-86
2023/01/27 08:46:51;;;;;;;13.63;11.47;;;;;;;5.02;100.00;98438.41;4882445;29;20199;-88
2023/01/27 08:53:03;;;;;;;13.67;10.50;;;;;;;5.25;100.00;98463.56;4870866;29;20222;-83
2023/01/27 08:55:46;;;;;;;13.90;11.07;;;;;;;5.38;100.00;98470.97;4880388;29;20288;-88
2023/01/27 09:01:45;;;;;;;16.33;10.77;;;;;;;5.43;100.00;98481.97;4880196;29;20285;-79
2023/01/27 09:04:45;;;;;;;13.83;11.17;;;;;;;5.36;100.00;98475.28;4877484;29;20202;-82
2023/01/27 09:07:41;;;;;;;14.97;10.77;;;;;;;5.21;100.00;98454.22;4879458;29;20258;-80
2023/01/27 09:10:52;;;;;;;15.97;10.70;;;;;;;5.29;100.00;98470.34;4877644;29;20206;-74
2023/01/27 09:13:52;;;;;;;17.67;12.13;;;;;;;5.27;100.00;98477.25;4877736;29;20206;-76
2023/01/27 09:16:40;;;;;;;16.47;11.80;;;;;;;5.31;100.00;98474.53;4877023;29;20238;-75
2023/01/27 09:19:32;;;;;;;27.00;14.00;;;;;;;5.30;100.00;98461.75;4877305;29;20227;-76
2023/01/27 09:26:05;;;;;;;39.33;22.13;;;;;;;5.53;100.00;98462.00;4888844;29;20353;-78
2023/01/27 09:28:46;;;;;;;59.73;32.80;;;;;;;5.48;100.00;98453.56;4893960;29;20198;-78
2023/01/27 09:31:50;;;;;;;89.50;43.03;;;;;;;5.51;100.00;98450.06;4896002;29;20597;-77
2023/01/27 09:34:27;;;;;;;47.87;24.93;;;;;;;5.38;100.00;98434.09;4896488;29;20208;-78
2023/01/27 09:37:16;;;;;;;113.23;52.80;;;;;;;5.39;100.00;98428.06;4896035;29;20296;-78
2023/01/27 09:39:52;;;;;;;50.63;31.03;;;;;;;5.28;100.00;98412.91;4896052;29;20668;-79
2023/01/27 09:42:59;;;;;;;40.43;25.40;;;;;;;5.30;100.00;98416.28;4895358;29;20198;-80
2023/01/27 09:46:17;;;;;;;41.80;24.63;;;;;;;5.17;100.00;98414.91;4894104;29;20709;-79
2023/01/27 09:49:23;;;;;;;37.33;23.67;;;;;;;5.34;100.00;98417.88;4870850;29;20686;-79
2023/01/27 09:52:25;;;;;;;56.37;32.93;;;;;;;5.43;100.00;98397.06;4878321;29;20210;-83
2023/01/27 09:55:54;;;;;;;44.03;27.30;;;;;;;5.59;100.00;98407.81;4877404;29;20194;-81
2023/01/27 09:59:00;;;;;;;38.90;26.80;;;;;;;5.51;100.00;98409.75;4877349;29;20746;-78
2023/01/27 10:12:10;;;;;;;31.37;19.73;;;;;;;5.68;100.00;98414.44;4382301;27;21596069;-59
2023/01/27 10:15:17;;;;;;;31.70;20.70;;;;;;;5.78;100.00;98408.97;5128474;28;20557;-60
2023/01/27 10:18:28;;;;;;;25.00;17.07;;;;;;;5.92;100.00;98406.06;5128637;28;20201;-60
2023/01/27 10:21:27;;;;;;;25.30;17.73;;;;;;;6.03;100.00;98406.63;5126405;28;20186;-58
2023/01/27 10:24:38;;;;;;;24.17;16.27;;;;;;;6.00;100.00;98409.28;5127884;28;20204;-59
2023/01/27 10:27:54;;;;;;;32.67;23.70;;;;;;;6.03;100.00;98398.03;5127828;28;20190;-59
2023/01/27 10:30:59;;;;;;;27.73;16.40;;;;;;;6.02;100.00;98381.75;5127795;28;20314;-60
2023/01/27 10:34:02;;;;;;;29.53;18.17;;;;;;;6.00;100.00;98378.38;5110765;28;20249;-59
2023/01/27 10:37:00;;;;;;;37.23;22.10;;;;;;;6.01;100.00;98379.22;5127088;28;20251;-59
2023/01/27 10:40:01;;;;;;;51.00;30.97;;;;;;;5.84;100.00;98365.06;5127043;28;20194;-59
2023/01/27 10:43:10;;;;;;;35.80;21.77;;;;;;;5.95;100.00;98371.66;5127842;28;20280;-59
2023/01/27 10:46:21;;;;;;;44.30;24.07;;;;;;;6.00;100.00;98364.63;5127879;28;20289;-60
2023/01/27 10:49:28;;;;;;;45.00;22.90;;;;;;;6.07;100.00;98364.44;5127817;28;20239;-59
2023/01/27 10:58:29;;;;;;;32.00;19.07;;;;;;;6.09;100.00;98346.38;5123832;28;20305;-60
2023/01/27 11:01:30;;;;;;;25.93;16.47;;;;;;;6.11;100.00;98355.72;5126603;28;20217;-60
2023/01/27 11:07:05;;;;;;;31.90;16.60;;;;;;;6.29;100.00;98341.47;5125141;28;20213;-60
2023/01/27 11:09:50;;;;;;;168.47;63.10;;;;;;;6.31;100.00;98336.25;5124649;28;20223;-60
2023/01/27 11:12:38;;;;;;;60.50;26.47;;;;;;;6.29;100.00;98307.13;5125565;28;20683;-59
2023/01/27 11:15:40;;;;;;;34.93;21.93;;;;;;;6.40;100.00;98316.19;5123988;28;20559;-60
2023/01/27 11:18:47;;;;;;;29.83;18.97;;;;;;;6.53;100.00;98302.03;5122066;28;20209;-60
2023/01/27 11:24:57;;;;;;;15.93;10.70;;;;;;;6.85;100.00;98324.19;5110275;28;20209;-59
2023/01/27 11:34:30;;;;;;;14.03;11.83;;;;;;;7.15;100.00;98330.06;5109332;28;20202;-61
2023/01/27 11:37:50;;;;;;;20.10;12.77;;;;;;;7.23;100.00;98330.63;5111205;28;20235;-60
2023/01/27 11:40:44;;;;;;;19.53;12.43;;;;;;;7.20;100.00;98335.91;5092350;28;20696;-61
2023/01/27 11:46:42;;;;;;;19.97;12.93;;;;;;;7.16;100.00;98324.00;5091666;28;20203;-60
2023/01/27 11:49:47;;;;;;;16.27;12.17;;;;;;;7.20;100.00;98320.44;5092086;28;20230;-61
2023/01/27 11:52:49;;;;;;;11.50;9.80;;;;;;;7.05;100.00;98310.63;5092295;28;20290;-60
2023/01/27 11:55:30;;;;;;;15.33;9.07;;;;;;;6.91;100.00;98305.09;5102769;28;20264;-61
2023/01/27 11:58:26;;;;;;;14.03;10.07;;;;;;;6.87;100.00;98321.56;5112900;28;20194;-60
2023/01/27 12:04:50;;;;;;;13.90;10.30;;;;;;;6.88;100.00;98312.94;5113011;28;20590;-60
2023/01/27 12:07:29;;;;;;;12.87;10.30;;;;;;;6.85;100.00;98307.88;5111165;28;20198;-60
2023/01/27 12:10:38;;;;;;;14.83;10.40;;;;;;;6.92;100.00;98319.66;5108284;28;20257;-60
2023/01/27 12:13:30;;;;;;;16.27;9.90;;;;;;;6.97;100.00;98316.94;5111724;28;20240;-60
2023/01/27 12:16:20;;;;;;;14.70;10.40;;;;;;;6.91;100.00;98310.25;5111566;28;20195;-60
2023/01/27 12:19:30;;;;;;;17.97;11.70;;;;;;;6.94;100.00;98286.94;5111378;28;20581;-61
2023/01/27 12:22:20;;;;;;;20.03;11.97;;;;;;;6.92;100.00;98294.72;5111511;28;20205;-61
2023/01/27 12:25:36;;;;;;;19.97;13.23;;;;;;;6.93;100.00;98295.56;5111235;28;20281;-60
2023/01/27 12:28:20;;;;;;;17.63;11.17;;;;;;;6.78;100.00;98291.75;5111610;28;20194;-59
2023/01/27 12:34:11;;;;;;;13.63;9.63;;;;;;;6.84;100.00;98281.25;5110055;28;20198;-61
2023/01/27 12:36:53;;;;;;;12.40;9.23;;;;;;;6.95;100.00;98285.19;5111070;28;20605;-60
2023/01/27 12:39:59;;;;;;;9.63;8.10;;;;;;;7.06;100.00;98283.09;5109511;28;20199;-61
2023/01/27 12:43:07;;;;;;;12.60;9.23;;;;;;;7.22;100.00;98295.41;5109007;28;20236;-60
2023/01/27 12:46:19;;;;;;;9.17;7.67;;;;;;;7.43;100.00;98287.81;5109998;28;20198;-60
2023/01/27 12:49:32;;;;;;;;;;;;;;;;;;;;;
2023/01/27 12:52:24;;;;;;;15.27;10.30;;;;;;;7.74;100.00;98283.22;5110865;28;20218;-60
2023/01/27 12:55:38;;;;;;;22.17;14.60;;;;;;;7.56;100.00;98292.47;5108498;28;20258;-61
2023/01/27 12:58:47;;;;;;;11.27;8.97;;;;;;;7.45;100.00;98288.63;5109624;28;20195;-59
2023/01/27 13:01:42;;;;;;;22.67;13.43;;;;;;;7.24;100.00;98287.59;5107353;28;20287;-60
2023/01/27 13:04:19;;;;;;;18.33;11.47;;;;;;;7.17;100.00;98289.56;5110096;28;20199;-59
2023/01/27 13:07:18;;;;;;;15.03;11.47;;;;;;;7.17;100.00;98294.72;5110456;28;20194;-61
2023/01/27 14:13:59;;;;;;;11.67;9.97;;;;;;;6.78;100.00;98317.53;5106929;27;20553;-55
2023/01/27 14:16:36;;;;;;;12.53;10.17;;;;;;;6.82;100.00;98313.97;5107235;28;20194;-55
2023/01/27 14:19:15;;;;;;;10.63;9.13;;;;;;;6.83;100.00;98317.41;5105457;28;20229;-56
2023/01/27 14:21:49;;;;;;;12.23;9.60;;;;;;;6.75;100.00;98316.81;5106589;28;20687;-55
2023/01/27 14:24:24;;;;;;;12.37;9.30;;;;;;;6.62;100.00;98307.78;5105736;28;20560;-55
2023/01/27 14:41:07;;;;;;;12.67;7.37;;;;;;;6.54;100.00;98303.72;5081161;23;1363867;-54
2023/01/27 14:43:41;;;;;;;9.80;7.63;;;;;;;6.63;100.00;98301.75;5082957;28;20199;-55
2023/01/27 14:46:19;;;;;;;8.80;7.13;;;;;;;6.67;100.00;98304.16;5085077;28;20213;-55
2023/01/27 14:48:56;;;;;;;8.67;7.70;;;;;;;6.63;100.00;98307.75;5085408;28;20704;-55
2023/01/27 14:54:58;;;;;;;10.83;6.97;;;;;;;6.56;100.00;98321.69;5041588;28;20314;-55
2023/01/27 14:57:37;;;;;;;11.73;8.50;;;;;;;6.48;100.00;98324.53;5067453;28;20639;-56
2023/01/27 15:00:21;;;;;;;10.63;8.40;;;;;;;6.36;100.00;98322.34;5067295;28;20665;-55
2023/01/27 15:02:59;;;;;;;10.37;8.17;;;;;;;6.29;100.00;98299.38;5067328;28;20196;-55
2023/01/27 15:05:30;;;;;;;12.33;8.77;;;;;;;6.45;100.00;98313.47;5066479;28;20779;-54
2023/01/27 15:08:03;;;;;;;11.17;8.53;;;;;;;6.46;100.00;98323.72;5066331;28;20196;-56
2023/01/27 15:10:31;;;;;;;13.20;8.57;;;;;;;6.49;100.00;98320.22;5066605;28;20207;-55
2023/01/27 15:13:26;;;;;;;11.37;8.70;;;;;;;6.40;100.00;98318.78;5081883;28;20200;-55
2023/01/27 15:16:17;;;;;;;14.70;10.33;;;;;;;6.46;100.00;98328.03;5084313;28;20203;-56
2023/01/27 15:19:09;;;;;;;19.93;11.83;;;;;;;6.44;100.00;98328.09;5086880;28;20516;-55
2023/01/27 15:21:57;;;;;;;39.93;23.63;;;;;;;6.47;100.00;98330.56;5085300;28;20306;-55
2023/01/27 15:24:52;;;;;;;67.60;35.60;;;;;;;6.48;100.00;98334.84;5086453;28;20274;-55
2023/01/27 15:27:19;;;;;;;62.67;40.13;;;;;;;6.51;100.00;98332.16;5086897;28;20195;-56
2023/01/27 15:29:48;;;;;;;30.17;19.37;;;;;;;6.50;100.00;98332.22;5086548;28;20246;-55
2023/01/27 15:32:36;;;;;;;19.43;14.03;;;;;;;6.35;100.00;98333.53;5086223;28;20195;-55
2023/01/27 15:35:35;;;;;;;18.03;11.03;;;;;;;6.34;100.00;98325.84;5086493;28;20664;-55
2023/01/27 15:38:18;;;;;;;41.37;12.87;;;;;;;6.37;100.00;98333.47;5086473;28;20205;-56
2023/01/27 15:40:58;;;;;;;17.23;11.23;;;;;;;6.33;100.00;98330.16;5078390;28;20223;-55
2023/01/27 15:43:29;;;;;;;32.60;21.77;;;;;;;6.31;100.00;98333.69;5072715;28;20195;-56
2023/01/27 15:46:17;;;;;;;35.57;23.17;;;;;;;6.23;100.00;98331.31;5072656;28;20211;-56
2023/01/27 15:48:45;;;;;;;25.60;17.83;;;;;;;6.22;100.00;98332.22;5073270;28;20314;-56
2023/01/27 15:51:18;;;;;;;13.13;9.67;;;;;;;6.23;100.00;98336.47;5072619;28;20214;-55
2023/01/27 15:53:49;;;;;;;13.50;9.53;;;;;;;6.22;100.00;98329.63;5073047;28;20200;-55
2023/01/27 15:56:17;;;;;;;13.63;9.50;;;;;;;6.31;100.00;98338.84;5072827;28;20188;-56
2023/01/27 15:58:51;;;;;;;11.53;9.50;;;;;;;6.25;100.00;98342.44;5072632;28;20192;-57
2023/01/27 16:01:27;;;;;;;12.80;10.17;;;;;;;6.24;100.00;98339.91;5072741;28;20191;-60
2023/01/27 16:04:07;;;;;;;15.37;10.60;;;;;;;6.21;100.00;98342.59;5072774;28;20216;-57
2023/01/27 16:06:35;;;;;;;12.20;10.07;;;;;;;6.22;100.00;98346.81;5072693;28;20200;-57
2023/01/27 16:09:05;;;;;;;14.83;10.37;;;;;;;6.26;100.00;98351.84;5072260;28;20216;-57
2023/01/27 16:11:42;;;;;;;13.97;9.60;;;;;;;6.24;100.00;98348.47;5072507;28;20661;-55
2023/01/27 16:14:42;;;;;;;13.33;9.87;;;;;;;6.21;100.00;98356.28;5072289;28;20685;-56
2023/01/27 16:17:25;;;;;;;16.03;10.17;;;;;;;6.29;100.00;98353.50;5072331;28;20282;-56
2023/01/27 16:20:19;;;;;;;16.60;10.50;;;;;;;6.42;100.00;98352.25;5072455;28;20269;-55
2023/01/27 16:22:51;;;;;;;15.30;10.70;;;;;;;6.43;100.00;98364.25;5071958;28;20199;-55
2023/01/27 16:25:28;;;;;;;15.57;10.73;;;;;;;6.38;100.00;98364.38;5071902;28;20210;-56
2023/01/27 16:28:00;;;;;;;12.17;9.87;;;;;;;6.32;100.00;98358.56;5072280;28;20207;-55
2023/01/27 16:30:29;;;;;;;14.87;9.30;;;;;;;6.29;100.00;98366.38;5072206;28;20230;-55
2023/01/27 16:33:05;;;;;;;14.03;9.83;;;;;;;6.26;100.00;98364.72;5072219;28;20282;-56
2023/01/27 16:35:44;;;;;;;16.63;10.17;;;;;;;6.19;100.00;98358.09;5071863;28;20200;-56
2023/01/27 16:38:21;;;;;;;13.60;9.77;;;;;;;6.23;100.00;98372.53;5072032;28;20672;-56
2023/01/27 16:40:52;;;;;;;12.50;9.80;;;;;;;6.16;100.00;98374.47;5061653;28;20264;-56
2023/01/27 16:43:23;;;;;;;11.60;9.57;;;;;;;6.16;100.00;98364.16;5051807;28;20205;-56
2023/01/27 16:45:53;;;;;;;14.87;9.97;;;;;;;6.11;100.00;98365.16;5051979;28;20665;-56
2023/01/27 16:48:30;;;;;;;16.57;10.67;;;;;;;6.18;100.00;98370.13;5051979;28;20276;-57
2023/01/27 16:51:10;;;;;;;16.70;10.97;;;;;;;6.15;100.00;98377.09;5046515;28;20212;-56
2023/01/27 16:53:37;;;;;;;16.70;10.47;;;;;;;6.15;100.00;98371.94;5050687;28;20192;-55
2023/01/27 16:56:06;;;;;;;13.93;10.87;;;;;;;6.05;100.00;98381.66;5032110;28;20201;-56
2023/01/27 16:58:35;;;;;;;16.13;10.73;;;;;;;6.11;100.00;98371.16;5031169;28;20221;-54
2023/01/27 17:01:03;;;;;;;13.37;9.73;;;;;;;6.10;100.00;98378.94;5047484;28;20193;-57
2023/01/27 17:03:37;;;;;;;14.33;9.83;;;;;;;5.96;100.00;98360.50;5051910;28;20197;-53
2023/01/27 17:06:07;;;;;;;11.33;8.83;;;;;;;6.09;100.00;98378.13;5051249;28;20666;-54
2023/01/27 17:08:35;;;;;;;12.50;9.33;;;;;;;6.09;100.00;98383.28;5051401;28;20673;-53
2023/01/27 17:11:08;;;;;;;13.67;9.27;;;;;;;6.09;100.00;98372.97;5051388;28;20239;-55
2023/01/27 17:13:43;;;;;;;13.17;10.43;;;;;;;6.09;100.00;98385.84;5051198;28;20704;-56
2023/01/27 17:16:16;;;;;;;13.67;10.60;;;;;;;6.10;100.00;98384.09;5051278;28;20201;-56
2023/01/27 17:18:44;;;;;;;21.83;13.27;;;;;;;6.12;100.00;98395.19;5050784;28;20227;-55
2023/01/27 17:21:11;;;;;;;16.07;10.17;;;;;;;6.12;100.00;98383.16;5051134;28;20279;-55
2023/01/27 17:23:38;;;;;;;12.77;9.17;;;;;;;6.09;100.00;98397.88;5051128;28;20199;-57
2023/01/27 17:26:11;;;;;;;12.30;9.73;;;;;;;6.09;100.00;98397.88;5050892;28;20193;-54
2023/01/27 17:28:39;;;;;;;14.07;11.13;;;;;;;6.01;100.00;98382.63;5050827;28;20196;-55
2023/01/27 17:31:07;;;;;;;18.90;13.37;;;;;;;6.02;100.00;98391.19;5045297;28;20333;-55
2023/01/27 17:33:36;;;;;;;20.57;14.83;;;;;;;5.98;100.00;98408.47;5050239;28;20197;-54
2023/01/27 17:36:09;;;;;;;26.67;14.53;;;;;;;6.01;100.00;98389.50;5038518;28;20233;-55
2023/01/27 17:38:43;;;;;;;33.20;20.40;;;;;;;6.05;100.00;98391.13;5038016;28;20229;-55
2023/01/27 17:41:24;;;;;;;26.67;14.93;;;;;;;6.02;100.00;98389.47;5037842;28;20339;-55
2023/01/27 17:43:52;;;;;;;43.67;16.93;;;;;;;6.05;100.00;98407.41;5050114;28;20220;-55
2023/01/27 17:46:21;;;;;;;17.63;10.53;;;;;;;6.00;100.00;98400.69;5049461;28;20235;-55
2023/01/27 17:48:53;;;;;;;12.13;9.63;;;;;;;6.00;100.00;98400.69;5050701;28;20586;-56
2023/01/27 17:51:23;;;;;;;18.83;12.33;;;;;;;6.01;100.00;98407.53;5050524;28;20225;-54
2023/01/27 17:53:52;;;;;;;31.80;18.77;;;;;;;5.98;100.00;98411.03;5050369;28;20697;-54
2023/01/27 17:56:22;;;;;;;22.83;13.70;;;;;;;6.02;100.00;98416.97;5049924;28;20227;-55
2023/01/27 17:58:53;;;;;;;16.47;12.30;;;;;;;5.97;100.00;98416.25;5049819;28;20220;-54
2023/01/27 18:01:22;;;;;;;15.90;12.67;;;;;;;5.93;100.00;98409.50;5049582;28;20224;-54
2023/01/27 18:03:52;;;;;;;14.07;9.33;;;;;;;5.88;100.00;98408.72;5049920;28;20222;-54